sensor_id;sensor_type;location;lat;lon;timestamp;pressure;altitude;pressure_sealevel;temperature;humidity
10392;BME280;5242;49.244;6.774;2023-02-04T00:01:26;101166.75;;;7.91;nan
10392;BME280;5242;49.244;6.774;2023-02-04T00:09:18;101145.03;;;7.91;nan
10392;BME280;5242;49.244;6.774;2023-02-04T00:17:10;101149.94;;;7.89;nan
10392;BME280;5242;49.244;6.774;2023-02-04T00:25:03;101144.53;;;7.89;nan
10392;BME280;5242;49.244;6.774;2023-02-04T00:32:55;101141.00;;;7.89;nan
10392;BME280;5242;49.244;6.774;2023-02-04T00:40:47;101139.41;;;7.88;nan
10392;BME280;5242;49.244;6.774;2023-02-04T00:48:39;101139.41;;;7.88;nan
10392;BME280;5242;49.244;6.774;2023-02-04T00:56:31;101132.06;;;7.88;nan
10392;BME280;5242;49.244;6.774;2023-02-04T01:04:23;101138.03;;;7.90;nan
10392;BME280;5242;49.244;6.774;2023-02-04T01:12:14;101125.25;;;7.91;nan
10392;BME280;5242;49.244;6.774;2023-02-04T01:20:08;101110.06;;;7.90;nan
10392;BME280;5242;49.244;6.774;2023-02-04T01:28:00;101125.53;;;7.89;nan
10392;BME280;5242;49.244;6.774;2023-02-04T01:35:51;101125.53;;;7.89;nan
10392;BME280;5242;49.244;6.774;2023-02-04T01:43:45;101111.47;;;7.87;nan
10392;BME280;5242;49.244;6.774;2023-02-04T01:51:37;101117.72;;;7.88;nan
10392;BME280;5242;49.244;6.774;2023-02-04T01:59:30;101109.25;;;7.89;nan
10392;BME280;5242;49.244;6.774;2023-02-04T02:07:21;101109.25;;;7.89;nan
10392;BME280;5242;49.244;6.774;2023-02-04T02:15:13;101116.78;;;7.92;nan
10392;BME280;5242;49.244;6.774;2023-02-04T02:31:03;101125.16;;;7.96;nan
10392;BME280;5242;49.244;6.774;2023-02-04T02:38:55;101119.75;;;7.96;nan
10392;BME280;5242;49.244;6.774;2023-02-04T02:46:47;101119.75;;;7.96;nan
10392;BME280;5242;49.244;6.774;2023-02-04T02:54:40;101115.91;;;7.97;nan
10392;BME280;5242;49.244;6.774;2023-02-04T03:02:32;101110.19;;;7.98;nan
10392;BME280;5242;49.244;6.774;2023-02-04T03:10:24;101119.94;;;7.99;nan
10392;BME280;5242;49.244;6.774;2023-02-04T03:18:18;101136.72;;;8.01;nan
10392;BME280;5242;49.244;6.774;2023-02-04T03:26:11;101143.47;;;8.04;nan
10392;BME280;5242;49.244;6.774;2023-02-04T03:34:03;101137.75;;;8.05;nan
10392;BME280;5242;49.244;6.774;2023-02-04T03:41:55;101146.72;;;8.06;nan
10392;BME280;5242;49.244;6.774;2023-02-04T03:49:46;101158.34;;;8.06;nan
10392;BME280;5242;49.244;6.774;2023-02-04T03:57:38;101165.09;;;8.09;nan
10392;BME280;5242;49.244;6.774;2023-02-04T04:05:30;101174.84;;;8.10;nan
10392;BME280;5242;49.244;6.774;2023-02-04T04:13:23;101179.97;;;8.12;nan
10392;BME280;5242;49.244;6.774;2023-02-04T04:21:14;101185.13;;;8.13;nan
10392;BME280;5242;49.244;6.774;2023-02-04T04:29:06;101194.59;;;8.16;nan
10392;BME280;5242;49.244;6.774;2023-02-04T04:36:58;101207.84;;;8.17;nan
10392;BME280;5242;49.244;6.774;2023-02-04T04:44:50;101220.34;;;8.18;nan
10392;BME280;5242;49.244;6.774;2023-02-04T04:52:42;101211.88;;;8.20;nan
10392;BME280;5242;49.244;6.774;2023-02-04T05:00:34;101241.22;;;8.18;nan
10392;BME280;5242;49.244;6.774;2023-02-04T05:08:26;101227.00;;;8.07;nan
10392;BME280;5242;49.244;6.774;2023-02-04T05:16:18;101230.66;;;7.97;nan
10392;BME280;5242;49.244;6.774;2023-02-04T05:24:09;101236.78;;;7.89;nan
10392;BME280;5242;49.244;6.774;2023-02-04T05:32:01;101229.75;;;7.88;nan
10392;BME280;5242;49.244;6.774;2023-02-04T05:39:53;101238.47;;;7.85;nan
10392;BME280;5242;49.244;6.774;2023-02-04T05:47:45;101251.50;;;7.83;nan
10392;BME280;5242;49.244;6.774;2023-02-04T05:55:37;101258.63;;;7.79;nan
10392;BME280;5242;49.244;6.774;2023-02-04T06:03:29;101266.38;;;7.67;nan
10392;BME280;5242;49.244;6.774;2023-02-04T06:11:21;101281.91;;;7.61;nan
10392;BME280;5242;49.244;6.774;2023-02-04T06:19:13;101297.38;;;7.60;nan
10392;BME280;5242;49.244;6.774;2023-02-04T06:27:05;101304.19;;;7.58;nan
10392;BME280;5242;49.244;6.774;2023-02-04T06:34:57;101312.97;;;7.50;nan
10392;BME280;5242;49.244;6.774;2023-02-04T06:42:49;101328.53;;;7.63;nan
10392;BME280;5242;49.244;6.774;2023-02-04T06:50:40;101332.81;;;7.45;nan
10392;BME280;5242;49.244;6.774;2023-02-04T06:58:32;101336.38;;;7.40;nan
10392;BME280;5242;49.244;6.774;2023-02-04T07:06:24;101333.72;;;7.35;nan
10392;BME280;5242;49.244;6.774;2023-02-04T07:14:16;101342.59;;;7.41;nan
10392;BME280;5242;49.244;6.774;2023-02-04T07:22:09;101364.28;;;7.41;nan
10392;BME280;5242;49.244;6.774;2023-02-04T07:30:01;101372.53;;;7.31;nan
10392;BME280;5242;49.244;6.774;2023-02-04T07:37:53;101388.53;;;7.56;nan
10392;BME280;5242;49.244;6.774;2023-02-04T07:45:45;101390.94;;;7.82;nan
10392;BME280;5242;49.244;6.774;2023-02-04T07:53:36;101397.63;;;8.33;nan
10392;BME280;5242;49.244;6.774;2023-02-04T08:01:28;101417.91;;;8.40;nan
10392;BME280;5242;49.244;6.774;2023-02-04T08:09:20;101421.47;;;8.17;nan
10392;BME280;5242;49.244;6.774;2023-02-04T08:17:12;101431.09;;;8.28;nan
10392;BME280;5242;49.244;6.774;2023-02-04T08:25:04;101439.56;;;8.45;nan
10392;BME280;5242;49.244;6.774;2023-02-04T08:32:56;101436.28;;;11.70;nan
10392;BME280;5242;49.244;6.774;2023-02-04T08:40:48;101439.09;;;15.34;nan
10392;BME280;5242;49.244;6.774;2023-02-04T08:48:39;101455.19;;;17.24;nan
10392;BME280;5242;49.244;6.774;2023-02-04T08:56:31;101451.13;;;18.83;nan
10392;BME280;5242;49.244;6.774;2023-02-04T09:04:23;101464.41;;;15.40;nan
10392;BME280;5242;49.244;6.774;2023-02-04T09:12:15;101482.56;;;12.06;nan
10392;BME280;5242;49.244;6.774;2023-02-04T09:20:08;101497.41;;;10.56;nan
10392;BME280;5242;49.244;6.774;2023-02-04T09:28:00;101493.84;;;10.70;nan
10392;BME280;5242;49.244;6.774;2023-02-04T09:35:52;101471.72;;;11.30;nan
10392;BME280;5242;49.244;6.774;2023-02-04T09:43:44;101477.53;;;12.57;nan
10392;BME280;5242;49.244;6.774;2023-02-04T09:51:36;101479.84;;;14.90;nan
10392;BME280;5242;49.244;6.774;2023-02-04T09:59:28;101484.00;;;17.42;nan
10392;BME280;5242;49.244;6.774;2023-02-04T10:07:20;101496.59;;;16.87;nan
10392;BME280;5242;49.244;6.774;2023-02-04T10:15:17;101506.31;;;16.44;nan
10392;BME280;5242;49.244;6.774;2023-02-04T10:23:13;101512.31;;;16.86;nan
10392;BME280;5242;49.244;6.774;2023-02-04T10:31:06;101513.31;;;17.94;nan
10392;BME280;5242;49.244;6.774;2023-02-04T10:47:15;101507.97;;;14.66;nan
10392;BME280;5242;49.244;6.774;2023-02-04T10:55:13;101502.19;;;13.26;nan
10392;BME280;5242;49.244;6.774;2023-02-04T11:03:11;101497.34;;;12.71;nan
10392;BME280;5242;49.244;6.774;2023-02-04T11:11:10;101502.88;;;12.23;nan
10392;BME280;5242;49.244;6.774;2023-02-04T11:19:10;101506.81;;;11.23;nan
10392;BME280;5242;49.244;6.774;2023-02-04T11:27:23;101519.09;;;10.61;nan
10392;BME280;5242;49.244;6.774;2023-02-04T11:35:25;101502.34;;;10.40;nan
10392;BME280;5242;49.244;6.774;2023-02-04T11:43:18;101515.78;;;10.23;nan
10392;BME280;5242;49.244;6.774;2023-02-04T11:51:16;101506.69;;;10.55;nan
10392;BME280;5242;49.244;6.774;2023-02-04T11:59:11;101503.84;;;10.60;nan
10392;BME280;5242;49.244;6.774;2023-02-04T12:07:03;101513.03;;;10.64;nan
10392;BME280;5242;49.244;6.774;2023-02-04T12:14:57;101507.06;;;10.62;nan
10392;BME280;5242;49.244;6.774;2023-02-04T12:22:49;101500.56;;;10.86;nan
10392;BME280;5242;49.244;6.774;2023-02-04T12:30:41;101501.59;;;11.13;nan
10392;BME280;5242;49.244;6.774;2023-02-04T12:38:32;101492.13;;;11.32;nan
10392;BME280;5242;49.244;6.774;2023-02-04T12:46:24;101510.47;;;11.18;nan
10392;BME280;5242;49.244;6.774;2023-02-04T12:54:16;101511.66;;;10.90;nan
10392;BME280;5242;49.244;6.774;2023-02-04T13:02:08;101504.88;;;11.23;nan
10392;BME280;5242;49.244;6.774;2023-02-04T13:10:03;101504.47;;;11.30;nan
10392;BME280;5242;49.244;6.774;2023-02-04T13:17:55;101501.34;;;11.00;nan
10392;BME280;5242;49.244;6.774;2023-02-04T13:25:46;101506.69;;;11.28;nan
10392;BME280;5242;49.244;6.774;2023-02-04T13:33:38;101492.78;;;11.16;nan
10392;BME280;5242;49.244;6.774;2023-02-04T13:41:30;101495.53;;;10.79;nan
10392;BME280;5242;49.244;6.774;2023-02-04T13:49:22;101503.69;;;10.29;nan
10392;BME280;5242;49.244;6.774;2023-02-04T13:57:14;101517.97;;;10.07;nan
10392;BME280;5242;49.244;6.774;2023-02-04T14:05:07;101520.59;;;10.12;nan
10392;BME280;5242;49.244;6.774;2023-02-04T14:12:59;101511.31;;;10.13;nan
10392;BME280;5242;49.244;6.774;2023-02-04T14:20:51;101510.09;;;9.92;nan
10392;BME280;5242;49.244;6.774;2023-02-04T14:28:43;101515.16;;;9.98;nan
10392;BME280;5242;49.244;6.774;2023-02-04T14:36:35;101513.53;;;10.11;nan
10392;BME280;5242;49.244;6.774;2023-02-04T14:44:27;101509.50;;;9.95;nan
10392;BME280;5242;49.244;6.774;2023-02-04T14:52:18;101509.09;;;9.88;nan
10392;BME280;5242;49.244;6.774;2023-02-04T15:00:11;101508.56;;;9.86;nan
10392;BME280;5242;49.244;6.774;2023-02-04T15:08:03;101511.72;;;9.93;nan
10392;BME280;5242;49.244;6.774;2023-02-04T15:15:55;101507.63;;;9.76;nan
10392;BME280;5242;49.244;6.774;2023-02-04T15:23:47;101512.03;;;9.58;nan
10392;BME280;5242;49.244;6.774;2023-02-04T15:31:39;101527.44;;;9.49;nan
10392;BME280;5242;49.244;6.774;2023-02-04T15:39:31;101521.13;;;9.54;nan
10392;BME280;5242;49.244;6.774;2023-02-04T15:47:23;101544.28;;;9.32;nan
10392;BME280;5242;49.244;6.774;2023-02-04T15:55:15;101551.59;;;9.18;nan
10392;BME280;5242;49.244;6.774;2023-02-04T16:03:07;101543.06;;;9.06;nan
10392;BME280;5242;49.244;6.774;2023-02-04T16:10:58;101548.72;;;8.90;nan
10392;BME280;5242;49.244;6.774;2023-02-04T16:18:50;101561.41;;;8.76;nan
10392;BME280;5242;49.244;6.774;2023-02-04T16:26:43;101563.91;;;8.73;nan
10392;BME280;5242;49.244;6.774;2023-02-04T16:34:35;101567.56;;;8.63;nan
10392;BME280;5242;49.244;6.774;2023-02-04T16:42:27;101562.88;;;8.44;nan
10392;BME280;5242;49.244;6.774;2023-02-04T16:50:21;101565.75;;;8.29;nan
10392;BME280;5242;49.244;6.774;2023-02-04T16:58:13;101572.72;;;8.11;nan
10392;BME280;5242;49.244;6.774;2023-02-04T17:06:06;101599.69;;;7.97;nan
10392;BME280;5242;49.244;6.774;2023-02-04T17:14:05;101606.91;;;7.83;nan
10392;BME280;5242;49.244;6.774;2023-02-04T17:21:57;101603.50;;;7.67;nan
10392;BME280;5242;49.244;6.774;2023-02-04T17:29:50;101616.34;;;7.51;nan
10392;BME280;5242;49.244;6.774;2023-02-04T17:37:42;101624.63;;;7.31;nan
10392;BME280;5242;49.244;6.774;2023-02-04T17:45:34;101613.88;;;7.10;nan
10392;BME280;5242;49.244;6.774;2023-02-04T17:53:26;101615.63;;;6.91;nan
10392;BME280;5242;49.244;6.774;2023-02-04T18:01:19;101612.97;;;6.75;nan
10392;BME280;5242;49.244;6.774;2023-02-04T18:09:15;101609.25;;;6.51;nan
10392;BME280;5242;49.244;6.774;2023-02-04T18:17:11;101616.88;;;6.28;nan
10392;BME280;5242;49.244;6.774;2023-02-04T18:25:07;101609.34;;;6.15;nan
10392;BME280;5242;49.244;6.774;2023-02-04T18:33:12;101613.16;;;5.99;nan
10392;BME280;5242;49.244;6.774;2023-02-04T18:41:26;101626.38;;;5.75;nan
10392;BME280;5242;49.244;6.774;2023-02-04T18:49:31;101621.78;;;5.55;nan
10392;BME280;5242;49.244;6.774;2023-02-04T18:57:43;101636.59;;;5.27;nan
10392;BME280;5242;49.244;6.774;2023-02-04T19:05:41;101636.75;;;4.99;nan
10392;BME280;5242;49.244;6.774;2023-02-04T19:13:39;101627.00;;;4.93;nan
10392;BME280;5242;49.244;6.774;2023-02-04T19:21:33;101632.41;;;4.98;nan
10392;BME280;5242;49.244;6.774;2023-02-04T19:29:39;101636.47;;;4.96;nan
10392;BME280;5242;49.244;6.774;2023-02-04T19:37:39;101630.53;;;4.94;nan
10392;BME280;5242;49.244;6.774;2023-02-04T19:45:32;101629.22;;;5.01;nan
10392;BME280;5242;49.244;6.774;2023-02-04T19:53:27;101628.13;;;5.08;nan
10392;BME280;5242;49.244;6.774;2023-02-04T20:01:22;101631.94;;;5.12;nan
10392;BME280;5242;49.244;6.774;2023-02-04T20:33:25;101643.84;;;5.21;nan
10392;BME280;5242;49.244;6.774;2023-02-04T20:41:20;101653.34;;;5.34;nan
10392;BME280;5242;49.244;6.774;2023-02-04T20:49:23;101662.56;;;5.43;nan
10392;BME280;5242;49.244;6.774;2023-02-04T20:57:19;101660.66;;;5.49;nan
10392;BME280;5242;49.244;6.774;2023-02-04T21:05:21;101660.94;;;5.42;nan
10392;BME280;5242;49.244;6.774;2023-02-04T21:13:16;101669.81;;;5.27;nan
10392;BME280;5242;49.244;6.774;2023-02-04T21:21:08;101666.53;;;5.15;nan
10392;BME280;5242;49.244;6.774;2023-02-04T21:29:01;101660.06;;;5.21;nan
10392;BME280;5242;49.244;6.774;2023-02-04T21:36:53;101659.56;;;5.29;nan
10392;BME280;5242;49.244;6.774;2023-02-04T21:44:45;101657.38;;;5.26;nan
10392;BME280;5242;49.244;6.774;2023-02-04T21:52:36;101653.06;;;5.30;nan
10392;BME280;5242;49.244;6.774;2023-02-04T22:00:28;101648.78;;;5.34;nan
10392;BME280;5242;49.244;6.774;2023-02-04T22:08:20;101653.34;;;5.34;nan
10392;BME280;5242;49.244;6.774;2023-02-04T22:16:12;101661.16;;;5.25;nan
10392;BME280;5242;49.244;6.774;2023-02-04T22:24:04;101663.03;;;5.19;nan
10392;BME280;5242;49.244;6.774;2023-02-04T22:31:56;101661.69;;;5.22;nan
10392;BME280;5242;49.244;6.774;2023-02-04T22:39:48;101660.34;;;5.25;nan
10392;BME280;5242;49.244;6.774;2023-02-04T22:47:40;101660.59;;;5.23;nan
10392;BME280;5242;49.244;6.774;2023-02-04T22:55:31;101661.66;;;5.12;nan
10392;BME280;5242;49.244;6.774;2023-02-04T23:03:24;101666.16;;;4.96;nan
10392;BME280;5242;49.244;6.774;2023-02-04T23:11:16;101662.63;;;4.85;nan
10392;BME280;5242;49.244;6.774;2023-02-04T23:19:09;101666.97;;;4.91;nan
10392;BME280;5242;49.244;6.774;2023-02-04T23:27:02;101657.78;;;4.92;nan
10392;BME280;5242;49.244;6.774;2023-02-04T23:34:54;101672.38;;;4.91;nan
10392;BME280;5242;49.244;6.774;2023-02-04T23:42:46;101664.03;;;5.03;nan
10392;BME280;5242;49.244;6.774;2023-02-04T23:50:38;101672.47;;;5.12;nan
10392;BME280;5242;49.244;6.774;2023-02-04T23:58:30;101674.66;;;5.20;nan
